createdAt,value
2023-04-27T00:02:13.830Z,65.32
2023-04-27T00:04:41.970Z,65.49
2023-04-27T00:07:10.059Z,65.35
2023-04-27T00:09:38.392Z,65.62
2023-04-27T00:12:07.140Z,65.79
2023-04-27T00:14:34.865Z,65.63
2023-04-27T00:17:02.858Z,65.63
2023-04-27T00:19:30.700Z,65.70
2023-04-27T00:22:00.392Z,65.71
2023-04-27T00:24:28.959Z,65.69
2023-04-27T00:26:57.851Z,65.90
2023-04-27T00:29:25.777Z,65.99
2023-04-27T00:31:53.707Z,65.94
2023-04-27T00:34:21.766Z,66.00
2023-04-27T00:36:49.548Z,66.17
2023-04-27T00:39:17.959Z,66.29
2023-04-27T00:41:46.319Z,66.42
2023-04-27T00:44:14.072Z,66.45
2023-04-27T00:46:41.972Z,66.90
2023-04-27T00:49:09.722Z,67.23
2023-04-27T00:51:37.513Z,67.39
2023-04-27T00:54:06.269Z,67.34
2023-04-27T00:56:34.552Z,67.76
2023-04-27T00:59:02.337Z,67.98
2023-04-27T01:01:30.577Z,67.88
2023-04-27T01:03:58.657Z,67.61
2023-04-27T01:06:28.284Z,67.43
2023-04-27T01:08:56.681Z,67.85
2023-04-27T01:11:25.086Z,68.16
2023-04-27T01:13:54.887Z,67.76
2023-04-27T01:16:22.921Z,67.67
2023-04-27T01:18:50.769Z,67.69
2023-04-27T01:21:19.086Z,67.70
2023-04-27T01:23:47.486Z,67.72
2023-04-27T01:26:16.553Z,68.03
2023-04-27T01:28:44.460Z,68.52
2023-04-27T01:31:12.644Z,68.31
2023-04-27T01:33:41.446Z,68.31
2023-04-27T01:36:10.216Z,68.32
2023-04-27T01:38:38.107Z,68.20
2023-04-27T01:41:09.167Z,68.37
2023-04-27T01:43:37.416Z,68.68
2023-04-27T01:46:13.301Z,68.74
2023-04-27T01:48:41.908Z,68.57
2023-04-27T01:51:09.724Z,68.86
2023-04-27T01:53:37.492Z,68.81
2023-04-27T01:56:06.883Z,69.19
2023-04-27T01:58:35.126Z,68.84
2023-04-27T02:01:02.934Z,69.47
2023-04-27T02:03:30.985Z,69.45
2023-04-27T02:05:58.956Z,69.37
2023-04-27T02:08:26.863Z,69.26
2023-04-27T02:10:55.330Z,69.36
2023-04-27T02:13:23.614Z,69.63
2023-04-27T02:15:51.530Z,69.34
2023-04-27T02:18:20.285Z,69.49
2023-04-27T02:20:48.176Z,69.56
2023-04-27T02:23:16.004Z,69.59
2023-04-27T02:25:46.968Z,69.67
2023-04-27T02:28:15.728Z,69.63
2023-04-27T02:30:44.178Z,69.75
2023-04-27T02:33:11.989Z,69.73
2023-04-27T02:35:39.768Z,69.72
2023-04-27T02:38:07.559Z,70.08
2023-04-27T02:40:35.981Z,70.49
2023-04-27T02:43:04.322Z,70.79
2023-04-27T02:45:32.115Z,70.62
2023-04-27T02:47:59.975Z,70.56
2023-04-27T02:50:27.744Z,70.46
2023-04-27T02:52:56.467Z,70.36
2023-04-27T02:55:24.738Z,70.13
2023-04-27T02:57:52.506Z,70.36
2023-04-27T03:00:20.446Z,70.27
2023-04-27T03:02:48.317Z,70.44
2023-04-27T03:05:17.017Z,70.46
2023-04-27T03:07:45.175Z,71.05
2023-04-27T03:10:12.921Z,70.88
2023-04-27T03:12:40.755Z,70.83
2023-04-27T03:15:09.212Z,70.69
2023-04-27T03:17:36.975Z,70.68
2023-04-27T03:20:09.502Z,70.83
2023-04-27T03:22:37.308Z,70.78
2023-04-27T03:25:06.119Z,71.06
2023-04-27T03:27:33.906Z,70.95
2023-04-27T03:30:01.774Z,70.88
2023-04-27T03:32:29.534Z,70.78
2023-04-27T03:34:57.519Z,70.81
2023-04-27T03:37:25.280Z,70.56
2023-04-27T03:39:53.021Z,70.70
2023-04-27T03:42:20.831Z,70.80
2023-04-27T03:44:48.630Z,70.73
2023-04-27T03:47:16.421Z,70.64
2023-04-27T03:49:44.149Z,70.71
2023-04-27T03:52:11.969Z,70.85
2023-04-27T03:54:39.723Z,70.77
2023-04-27T03:57:07.826Z,70.70
2023-04-27T03:59:35.634Z,70.84
2023-04-27T04:02:05.590Z,70.90
2023-04-27T04:04:33.757Z,70.72
2023-04-27T04:07:01.767Z,70.61
2023-04-27T04:09:29.579Z,70.61
2023-04-27T04:11:58.029Z,70.55
2023-04-27T04:14:26.222Z,70.38
2023-04-27T04:16:54.606Z,70.17
2023-04-27T04:19:22.561Z,69.98
2023-04-27T04:21:50.791Z,69.77
2023-04-27T04:24:18.897Z,69.51
2023-04-27T04:26:47.334Z,69.45
2023-04-27T04:29:15.950Z,69.29
2023-04-27T04:31:44.559Z,69.06
2023-04-27T04:34:12.936Z,69.01
2023-04-27T04:36:40.689Z,69.02
2023-04-27T04:39:08.517Z,69.04
2023-04-27T04:41:36.708Z,69.06
2023-04-27T04:44:06.181Z,69.09
2023-04-27T04:46:34.012Z,69.00
2023-04-27T04:49:02.769Z,68.66
2023-04-27T04:51:30.862Z,68.48
2023-04-27T04:54:01.149Z,68.36
2023-04-27T04:56:30.471Z,68.07
2023-04-27T04:58:58.683Z,67.89
2023-04-27T05:01:26.681Z,67.69
2023-04-27T05:03:54.613Z,67.57
2023-04-27T05:06:22.576Z,67.42
2023-04-27T05:08:50.363Z,67.20
2023-04-27T05:11:18.915Z,66.96
2023-04-27T05:13:48.056Z,66.79
2023-04-27T05:16:16.409Z,66.67
2023-04-27T05:18:44.261Z,66.56
2023-04-27T05:21:17.666Z,66.52
2023-04-27T05:23:45.445Z,66.32
2023-04-27T05:26:18.395Z,66.26
2023-04-27T05:28:47.250Z,66.22
2023-04-27T05:31:15.074Z,66.22
2023-04-27T05:33:42.872Z,66.40
2023-04-27T05:36:11.112Z,66.62
2023-04-27T05:38:40.594Z,66.69
2023-04-27T05:41:09.018Z,66.75
2023-04-27T05:43:38.757Z,66.76
2023-04-27T05:46:06.807Z,66.70
2023-04-27T05:48:35.289Z,66.83
2023-04-27T05:51:04.188Z,66.78
2023-04-27T05:53:34.705Z,66.60
2023-04-27T05:56:04.523Z,66.97
2023-04-27T05:58:33.699Z,67.04
2023-04-27T06:01:03.482Z,66.77
2023-04-27T06:03:31.587Z,66.54
2023-04-27T06:06:01.281Z,66.46
2023-04-27T06:08:29.844Z,66.29
2023-04-27T06:10:57.990Z,66.08
2023-04-27T06:13:26.350Z,65.99
2023-04-27T06:15:54.608Z,65.89
2023-04-27T06:18:22.428Z,65.74
2023-04-27T06:20:50.625Z,65.60
2023-04-27T06:23:18.452Z,65.29
2023-04-27T06:25:46.297Z,64.93
2023-04-27T06:28:14.612Z,64.87
2023-04-27T06:30:42.921Z,64.99
2023-04-27T06:33:10.908Z,65.08
2023-04-27T06:35:38.873Z,65.19
2023-04-27T06:38:07.695Z,65.31
2023-04-27T06:40:37.101Z,65.27
2023-04-27T06:43:05.410Z,65.07
2023-04-27T06:45:33.654Z,64.70
2023-04-27T06:48:01.589Z,64.42
2023-04-27T06:50:30.641Z,64.35
2023-04-27T06:52:58.430Z,64.22
2023-04-27T06:55:26.489Z,63.79
2023-04-27T06:57:54.783Z,63.44
2023-04-27T07:00:23.184Z,63.10
2023-04-27T07:02:51.756Z,62.73
2023-04-27T07:05:20.138Z,62.76
2023-04-27T07:07:47.932Z,62.69
2023-04-27T07:10:16.048Z,62.70
2023-04-27T07:12:44.667Z,62.49
2023-04-27T07:15:13.519Z,62.90
2023-04-27T07:17:41.941Z,62.71
2023-04-27T07:20:10.096Z,62.63
2023-04-27T07:22:38.027Z,61.75
2023-04-27T07:25:06.858Z,61.78
2023-04-27T07:27:35.947Z,61.77
2023-04-27T07:30:05.603Z,61.76
2023-04-27T07:32:33.614Z,61.89
2023-04-27T07:35:01.865Z,62.09
2023-04-27T07:37:29.714Z,62.47
2023-04-27T07:39:59.936Z,62.85
2023-04-27T07:42:28.337Z,62.98
2023-04-27T07:44:57.380Z,62.93
2023-04-27T07:47:25.216Z,62.96
2023-04-27T07:49:53.176Z,62.80
2023-04-27T07:52:20.994Z,62.79
2023-04-27T07:54:49.497Z,63.17
2023-04-27T07:57:17.292Z,63.24
2023-04-27T07:59:46.648Z,63.23
2023-04-27T08:02:19.746Z,63.08
2023-04-27T08:04:48.882Z,63.21
2023-04-27T08:07:18.926Z,63.27
2023-04-27T08:09:47.345Z,63.83
2023-04-27T08:12:15.098Z,63.79
2023-04-27T08:14:42.865Z,63.35
2023-04-27T08:17:11.455Z,63.35
2023-04-27T08:19:41.165Z,63.13
2023-04-27T08:22:09.066Z,62.63
2023-04-27T08:24:37.601Z,61.63
2023-04-27T08:27:08.943Z,61.42
2023-04-27T08:29:37.062Z,60.92
2023-04-27T08:32:05.380Z,60.80
2023-04-27T08:34:33.698Z,60.57
2023-04-27T08:37:02.469Z,59.42
2023-04-27T08:39:30.487Z,59.59
2023-04-27T08:41:58.356Z,59.63
2023-04-27T08:44:26.353Z,58.66
2023-04-27T08:46:54.236Z,56.80
2023-04-27T08:49:22.721Z,57.58
2023-04-27T08:51:50.468Z,57.22
2023-04-27T08:54:19.579Z,57.05
2023-04-27T08:56:47.334Z,56.55
2023-04-27T08:59:16.548Z,55.95
2023-04-27T09:01:49.675Z,55.28
2023-04-27T09:04:18.710Z,54.85
2023-04-27T09:06:46.644Z,55.10
2023-04-27T09:09:25.568Z,54.57
2023-04-27T09:11:53.391Z,54.59
2023-04-27T09:14:23.646Z,54.07
2023-04-27T09:16:59.780Z,53.12
2023-04-27T09:19:29.356Z,52.96
2023-04-27T09:22:05.126Z,53.06
2023-04-27T09:24:33.038Z,53.14
2023-04-27T09:27:01.874Z,53.42
2023-04-27T09:29:38.115Z,53.80
2023-04-27T09:32:20.689Z,53.73
2023-04-27T09:34:48.643Z,53.75
2023-04-27T09:37:16.627Z,53.68
2023-04-27T09:39:45.894Z,53.34
2023-04-27T09:42:13.754Z,53.28
2023-04-27T09:44:41.574Z,52.73
2023-04-27T09:47:10.804Z,52.31
2023-04-27T09:49:39.003Z,52.45
2023-04-27T09:52:06.748Z,52.12
2023-04-27T09:54:36.164Z,51.92
2023-04-27T09:57:17.451Z,51.82
2023-04-27T10:00:29.325Z,51.33
2023-04-27T10:03:12.233Z,51.09
2023-04-27T10:05:46.356Z,50.60
2023-04-27T10:08:15.254Z,50.15
2023-04-27T10:10:48.126Z,49.92
2023-04-27T10:13:27.156Z,49.64
2023-04-27T10:15:54.967Z,50.32
2023-04-27T10:18:28.038Z,50.11
2023-04-27T10:20:55.974Z,50.34
2023-04-27T10:23:27.050Z,49.91
2023-04-27T10:25:55.249Z,49.77
2023-04-27T10:28:23.243Z,49.62
2023-04-27T10:30:52.048Z,49.90
2023-04-27T10:33:22.806Z,50.36
2023-04-27T10:35:56.946Z,50.48
2023-04-27T10:38:30.811Z,50.65
2023-04-27T10:41:05.114Z,50.40
2023-04-27T10:43:35.925Z,50.09
2023-04-27T10:46:12.029Z,49.71
2023-04-27T10:48:41.221Z,48.07
2023-04-27T10:51:09.211Z,47.91
2023-04-27T10:53:37.768Z,47.51
2023-04-27T10:56:07.179Z,47.38
2023-04-27T10:58:48.313Z,47.06
2023-04-27T11:01:27.506Z,48.24
2023-04-27T11:04:00.164Z,48.20
2023-04-27T11:06:30.420Z,48.21
2023-04-27T11:08:58.304Z,47.89
2023-04-27T11:11:26.549Z,48.03
2023-04-27T11:13:55.998Z,48.25
2023-04-27T11:16:24.292Z,47.51
2023-04-27T11:18:52.652Z,47.89
2023-04-27T11:21:21.671Z,47.73
2023-04-27T11:23:49.490Z,48.01
2023-04-27T11:26:19.844Z,47.30
2023-04-27T11:28:57.997Z,46.97
2023-04-27T11:31:27.420Z,47.29
2023-04-27T11:33:56.083Z,47.24
2023-04-27T11:36:24.537Z,47.25
2023-04-27T11:38:58.400Z,46.43
2023-04-27T11:41:37.404Z,46.60
2023-04-27T11:44:08.362Z,46.44
2023-04-27T11:46:38.260Z,46.62
2023-04-27T11:49:09.133Z,47.22
2023-04-27T11:51:37.757Z,47.35
2023-04-27T11:54:07.592Z,46.81
2023-04-27T11:56:37.971Z,47.12
2023-04-27T11:59:06.923Z,46.88
2023-04-27T12:01:37.994Z,46.93
2023-04-27T12:04:06.442Z,47.02
2023-04-27T12:06:34.840Z,47.10
2023-04-27T12:09:03.951Z,47.29
2023-04-27T12:11:31.812Z,46.93
2023-04-27T12:14:00.138Z,47.06
2023-04-27T12:16:28.134Z,46.58
2023-04-27T12:18:56.002Z,47.04
2023-04-27T12:21:24.401Z,46.51
2023-04-27T12:23:52.904Z,46.04
2023-04-27T12:26:21.651Z,45.88
2023-04-27T12:28:50.021Z,45.03
2023-04-27T12:31:23.609Z,45.05
2023-04-27T12:33:52.673Z,44.82
2023-04-27T12:36:21.215Z,44.60
2023-04-27T12:38:49.040Z,44.70
2023-04-27T12:41:17.234Z,45.15
2023-04-27T12:43:46.045Z,45.29
2023-04-27T12:46:14.130Z,45.74
2023-04-27T12:48:41.986Z,45.33
2023-04-27T12:51:11.168Z,45.68
2023-04-27T12:53:39.000Z,45.86
2023-04-27T12:56:07.325Z,46.09
2023-04-27T12:58:35.146Z,46.25
2023-04-27T13:01:02.956Z,46.58
2023-04-27T13:03:31.295Z,46.73
2023-04-27T13:05:59.816Z,46.57
2023-04-27T13:08:27.707Z,46.63
2023-04-27T13:10:55.983Z,46.69
2023-04-27T13:13:23.749Z,46.70
2023-04-27T13:15:51.608Z,46.75
2023-04-27T13:18:19.621Z,46.50
2023-04-27T13:20:48.948Z,46.51
2023-04-27T13:23:17.310Z,46.44
2023-04-27T13:25:45.621Z,46.37
2023-04-27T13:28:13.465Z,46.05
2023-04-27T13:30:41.681Z,46.57
2023-04-27T13:33:21.777Z,46.29
2023-04-27T13:35:52.096Z,46.45
2023-04-27T13:38:20.439Z,46.15
2023-04-27T13:40:48.269Z,46.13
2023-04-27T13:43:16.221Z,45.90
2023-04-27T13:45:45.434Z,46.41
2023-04-27T13:48:14.017Z,46.37
2023-04-27T13:50:41.892Z,46.27
2023-04-27T13:53:10.276Z,46.05
2023-04-27T13:55:38.775Z,45.53
2023-04-27T13:58:06.864Z,45.47
2023-04-27T14:00:35.284Z,45.77
2023-04-27T14:03:04.918Z,45.27
2023-04-27T14:05:33.061Z,44.96
2023-04-27T14:08:01.403Z,44.48
2023-04-27T14:10:30.263Z,44.48
2023-04-27T14:12:58.584Z,44.46
2023-04-27T14:15:26.366Z,44.36
2023-04-27T14:17:54.144Z,43.99
2023-04-27T14:20:22.737Z,43.79
2023-04-27T14:22:50.573Z,43.78
2023-04-27T14:25:19.092Z,43.89
2023-04-27T14:27:46.846Z,43.99
2023-04-27T14:30:15.541Z,44.00
2023-04-27T14:32:43.391Z,43.99
2023-04-27T14:35:11.336Z,44.13
2023-04-27T14:37:39.495Z,44.63
2023-04-27T14:40:08.670Z,44.88
2023-04-27T14:42:36.468Z,45.23
2023-04-27T14:45:04.624Z,45.63
2023-04-27T14:47:32.724Z,45.81
2023-04-27T14:50:01.278Z,46.14
2023-04-27T14:52:29.791Z,46.40
2023-04-27T14:54:59.367Z,46.53
2023-04-27T14:57:27.242Z,46.56
2023-04-27T14:59:55.091Z,46.50
2023-04-27T15:02:23.097Z,46.54
2023-04-27T15:04:51.274Z,46.56
2023-04-27T15:07:21.489Z,46.51
2023-04-27T15:09:51.510Z,46.56
2023-04-27T15:12:19.321Z,46.49
2023-04-27T15:14:48.470Z,46.44
2023-04-27T15:17:16.271Z,46.45
2023-04-27T15:19:44.090Z,46.27
2023-04-27T15:22:14.731Z,46.56
2023-04-27T15:24:43.057Z,46.80
2023-04-27T15:27:10.842Z,46.80
2023-04-27T15:29:38.665Z,46.81
2023-04-27T15:32:06.686Z,46.89
2023-04-27T15:34:34.469Z,46.95
2023-04-27T15:37:03.749Z,47.14
2023-04-27T15:39:32.234Z,47.41
2023-04-27T15:42:01.445Z,47.40
2023-04-27T15:44:29.230Z,47.39
2023-04-27T15:46:57.179Z,47.29
2023-04-27T15:49:25.132Z,47.20
2023-04-27T15:51:55.279Z,47.30
2023-04-27T15:54:23.627Z,47.51
2023-04-27T15:56:51.938Z,47.58
2023-04-27T15:59:19.782Z,47.66
2023-04-27T16:01:47.641Z,47.87
2023-04-27T16:04:15.992Z,48.12
2023-04-27T16:06:44.570Z,48.34
2023-04-27T16:09:13.296Z,48.47
2023-04-27T16:11:42.983Z,48.51
2023-04-27T16:14:10.921Z,48.61
2023-04-27T16:16:38.962Z,48.76
2023-04-27T16:19:08.861Z,48.98
2023-04-27T16:21:37.128Z,49.19
2023-04-27T16:24:05.768Z,49.17
2023-04-27T16:26:33.766Z,49.34
2023-04-27T16:29:01.521Z,49.42
2023-04-27T16:31:29.392Z,49.61
2023-04-27T16:33:57.213Z,49.78
2023-04-27T16:36:25.394Z,50.01
2023-04-27T16:38:53.721Z,50.17
2023-04-27T16:41:22.181Z,50.41
2023-04-27T16:43:51.133Z,50.48
2023-04-27T16:46:18.980Z,50.55
2023-04-27T16:48:46.960Z,50.69
2023-04-27T16:51:15.343Z,50.71
2023-04-27T16:53:43.799Z,50.96
2023-04-27T16:56:13.632Z,50.97
2023-04-27T16:58:41.467Z,51.14
2023-04-27T17:01:09.312Z,51.15
2023-04-27T17:03:37.298Z,51.18
2023-04-27T17:06:05.590Z,51.15
2023-04-27T17:08:34.014Z,51.17
2023-04-27T17:11:02.108Z,51.28
2023-04-27T17:13:31.762Z,51.30
2023-04-27T17:15:59.613Z,51.47
2023-04-27T17:18:27.524Z,51.74
2023-04-27T17:20:55.969Z,51.91
2023-04-27T17:23:24.293Z,52.17
2023-04-27T17:25:52.068Z,52.13
2023-04-27T17:28:19.895Z,52.61
2023-04-27T17:30:47.774Z,52.65
2023-04-27T17:33:16.792Z,52.93
2023-04-27T17:35:47.167Z,53.29
2023-04-27T17:38:16.260Z,53.54
2023-04-27T17:40:44.191Z,53.45
2023-04-27T17:43:12.045Z,53.31
2023-04-27T17:45:39.905Z,53.27
2023-04-27T17:48:07.788Z,53.46
2023-04-27T17:50:37.499Z,53.34
2023-04-27T17:53:05.942Z,53.35
2023-04-27T17:55:33.934Z,53.52
2023-04-27T17:58:04.093Z,53.65
2023-04-27T18:00:32.297Z,53.65
2023-04-27T18:03:00.447Z,53.78
2023-04-27T18:05:29.440Z,54.82
2023-04-27T18:07:57.226Z,55.32
2023-04-27T18:10:25.009Z,56.08
2023-04-27T18:12:52.746Z,56.76
2023-04-27T18:15:20.611Z,57.01
2023-04-27T18:17:49.011Z,57.13
2023-04-27T18:20:17.691Z,57.23
2023-04-27T18:22:45.554Z,56.76
2023-04-27T18:25:13.432Z,56.95
2023-04-27T18:27:43.781Z,57.06
2023-04-27T18:30:11.796Z,57.13
2023-04-27T18:32:42.889Z,57.39
2023-04-27T18:35:11.355Z,58.02
2023-04-27T18:37:39.077Z,58.28
2023-04-27T18:40:07.801Z,59.04
2023-04-27T18:42:35.606Z,59.72
2023-04-27T18:45:04.122Z,60.01
2023-04-27T18:47:32.536Z,60.06
2023-04-27T18:50:00.404Z,60.46
2023-04-27T18:52:28.169Z,60.77
2023-04-27T18:54:56.002Z,61.03
2023-04-27T18:57:26.587Z,60.93
2023-04-27T18:59:54.978Z,61.17
2023-04-27T19:02:25.352Z,61.46
2023-04-27T19:05:07.579Z,61.44
2023-04-27T19:07:40.779Z,61.25
2023-04-27T19:10:10.245Z,61.42
2023-04-27T19:12:38.429Z,61.71
2023-04-27T19:15:07.104Z,61.64
2023-04-27T19:17:35.304Z,61.85
2023-04-27T19:20:03.899Z,62.26
2023-04-27T19:22:34.515Z,62.45
2023-04-27T19:25:04.376Z,62.33
2023-04-27T19:27:32.347Z,62.52
2023-04-27T19:30:01.115Z,62.61
2023-04-27T19:32:28.964Z,62.63
2023-04-27T19:34:58.180Z,62.70
2023-04-27T19:37:28.735Z,62.96
2023-04-27T19:39:57.050Z,63.05
2023-04-27T19:42:25.181Z,63.14
2023-04-27T19:44:52.989Z,63.16
2023-04-27T19:47:21.238Z,63.19
2023-04-27T19:49:49.556Z,63.15
2023-04-27T19:52:17.812Z,63.43
2023-04-27T19:54:51.101Z,63.60
2023-04-27T19:57:19.105Z,63.66
2023-04-27T19:59:47.048Z,63.65
2023-04-27T20:02:16.019Z,63.91
2023-04-27T20:04:44.986Z,63.80
2023-04-27T20:07:13.065Z,63.86
2023-04-27T20:09:40.970Z,64.15
2023-04-27T20:12:19.453Z,64.37
2023-04-27T20:14:57.280Z,64.52
2023-04-27T20:17:26.247Z,64.53
2023-04-27T20:19:57.196Z,64.85
2023-04-27T20:22:24.963Z,64.82
2023-04-27T20:24:53.340Z,64.91
2023-04-27T20:27:21.612Z,65.06
2023-04-27T20:29:50.207Z,65.11
2023-04-27T20:32:18.056Z,65.41
2023-04-27T20:34:45.995Z,65.82
2023-04-27T20:37:13.786Z,65.90
2023-04-27T20:39:42.101Z,66.23
2023-04-27T20:42:12.728Z,66.51
2023-04-27T20:44:40.491Z,66.92
2023-04-27T20:47:08.281Z,67.28
2023-04-27T20:49:36.016Z,67.46
2023-04-27T20:52:03.957Z,67.61
2023-04-27T20:54:33.175Z,67.52
2023-04-27T20:57:02.313Z,67.55
2023-04-27T20:59:30.124Z,67.76
2023-04-27T21:01:57.868Z,68.38
2023-04-27T21:04:25.794Z,68.08
2023-04-27T21:06:53.751Z,68.05
2023-04-27T21:09:22.113Z,67.85
2023-04-27T21:11:50.654Z,67.72
2023-04-27T21:14:18.445Z,68.07
2023-04-27T21:16:46.270Z,68.37
2023-04-27T21:19:16.227Z,68.43
2023-04-27T21:21:44.093Z,68.45
2023-04-27T21:24:12.425Z,68.46
2023-04-27T21:26:42.304Z,68.43
2023-04-27T21:29:10.534Z,68.40
2023-04-27T21:31:38.410Z,68.49
2023-04-27T21:34:06.266Z,68.71
2023-04-27T21:36:34.549Z,69.03
2023-04-27T21:39:03.001Z,69.39
2023-04-27T21:41:30.761Z,69.79
2023-04-27T21:43:58.539Z,69.84
2023-04-27T21:46:26.414Z,69.62
2023-04-27T21:48:54.201Z,69.72
2023-04-27T21:51:22.470Z,69.78
2023-04-27T21:53:50.829Z,69.87
2023-04-27T21:56:18.607Z,69.94
2023-04-27T21:58:46.492Z,69.92
2023-04-27T22:01:14.644Z,69.91
2023-04-27T22:03:42.560Z,70.04
2023-04-27T22:06:10.781Z,70.12
2023-04-27T22:08:38.565Z,70.18
2023-04-27T22:11:06.328Z,70.17
2023-04-27T22:13:34.622Z,70.20
2023-04-27T22:16:02.468Z,70.29
2023-04-27T22:18:30.402Z,70.17
2023-04-27T22:20:58.374Z,70.29
2023-04-27T22:23:26.673Z,70.42
2023-04-27T22:25:54.423Z,70.32
2023-04-27T22:28:22.281Z,70.48
2023-04-27T22:30:50.093Z,70.41
2023-04-27T22:33:18.468Z,70.46
2023-04-27T22:35:46.980Z,70.58
2023-04-27T22:38:14.855Z,70.74
2023-04-27T22:40:42.708Z,70.84
2023-04-27T22:43:10.422Z,70.92
2023-04-27T22:45:39.052Z,70.99
2023-04-27T22:48:07.254Z,70.96
2023-04-27T22:50:35.264Z,71.02
2023-04-27T22:53:03.874Z,71.23
2023-04-27T22:55:31.592Z,71.16
2023-04-27T22:57:59.362Z,70.97
2023-04-27T23:00:27.765Z,70.80
2023-04-27T23:02:56.313Z,70.54
2023-04-27T23:05:24.186Z,71.08
2023-04-27T23:07:52.043Z,71.08
2023-04-27T23:10:19.894Z,71.19
2023-04-27T23:12:47.830Z,71.61
2023-04-27T23:15:16.579Z,71.56
2023-04-27T23:17:44.371Z,71.43
2023-04-27T23:20:24.634Z,71.52
2023-04-27T23:22:56.575Z,71.53
2023-04-27T23:25:24.753Z,71.63
2023-04-27T23:27:53.316Z,71.69
2023-04-27T23:30:22.257Z,71.62
2023-04-27T23:32:50.301Z,71.57
2023-04-27T23:35:18.337Z,71.59
2023-04-27T23:37:46.151Z,71.73
2023-04-27T23:40:14.577Z,72.06
2023-04-27T23:42:43.098Z,72.09
2023-04-27T23:45:11.473Z,72.15
2023-04-27T23:47:39.812Z,72.16
2023-04-27T23:50:08.281Z,72.25
2023-04-27T23:52:36.134Z,72.37
2023-04-27T23:55:04.180Z,72.39
2023-04-27T23:57:32.378Z,72.32
